| time (UTC) | temp C | wind direction | speed KPH | gust KPH | rain 1hr cm | rain 24hr cm | rain mn cm | humidity % | barometer mb |
| 20260508044542 | 12 | 0 | 1.6 | 6.4 | 0.00 | 1.09 | 0.00 | 91 | 1013.1 |
| 20260508043057 | 12 | 112 | 1.6 | 6.4 | 0.00 | 1.09 | 0.00 | 91 | 1013.2 |
| 20260508041548 | 12 | 0 | 0.0 | 0.0 | 0.00 | 1.09 | 0.00 | 91 | 1013.3 |
| 20260508040039 | 12 | 0 | 0.0 | 0.0 | 0.00 | 1.09 | 0.00 | 91 | 1013.1 |
| 20260508034542 | 12 | 0 | 0.0 | 4.8 | 0.00 | 1.09 | 1.09 | 91 | 1012.9 |
| 20260508033035 | 12 | 135 | 0.0 | 3.2 | 0.00 | 1.09 | 1.09 | 91 | 1012.6 |
| 20260508031536 | 12 | 0 | 0.0 | 3.2 | 0.00 | 1.09 | 1.09 | 91 | 1012.6 |
| 20260508030051 | 12 | 69 | 1.6 | 4.8 | 0.00 | 1.09 | 1.09 | 91 | 1012.3 |
| 20260508024544 | 12 | 69 | 1.6 | 6.4 | 0.00 | 1.09 | 1.09 | 90 | 1012.3 |
| 20260508023044 | 12 | 117 | 0.0 | 4.8 | 0.00 | 1.09 | 1.09 | 90 | 1012.0 |
| 20260508021541 | 12 | 0 | 0.0 | 1.6 | 0.00 | 1.09 | 1.09 | 90 | 1012.0 |
| 20260508020036 | 12 | 139 | 0.0 | 3.2 | 0.00 | 1.09 | 1.09 | 90 | 1011.8 |
| 20260508014543 | 12 | 0 | 0.0 | 8.0 | 0.00 | 1.09 | 1.09 | 90 | 1011.6 |
| 20260508013041 | 12 | 153 | 3.2 | 6.4 | 0.00 | 1.09 | 1.09 | 89 | 1011.0 |
| 20260508011543 | 12 | 141 | 3.2 | 9.7 | 0.00 | 1.09 | 1.09 | 89 | 1010.9 |
| 20260508010042 | 12 | 111 | 0.0 | 6.4 | 0.00 | 1.09 | 1.09 | 88 | 1011.3 |
| 20260508004534 | 12 | 0 | 0.0 | 6.4 | 0.00 | 1.09 | 1.09 | 88 | 1010.9 |
| 20260508003042 | 12 | 153 | 1.6 | 6.4 | 0.00 | 1.09 | 1.09 | 88 | 1010.7 |
| 20260508001546 | 12 | 99 | 4.8 | 12.9 | 0.00 | 1.09 | 1.09 | 89 | 1010.8 |
| 20260508000037 | 12 | 113 | 4.8 | 14.5 | 0.00 | 1.09 | 1.09 | 88 | 1010.3 |
| 20260507234547 | 12 | 165 | 6.4 | 14.5 | 0.00 | 1.09 | 1.09 | 87 | 1010.1 |
| 20260507233036 | 12 | 208 | 4.8 | 16.1 | 0.00 | 1.09 | 1.09 | 87 | 1009.9 |
| 20260507231535 | 12 | 173 | 3.2 | 12.9 | 0.00 | 1.09 | 1.09 | 88 | 1009.8 |
| 20260507230043 | 12 | 127 | 9.7 | 17.7 | 0.00 | 1.09 | 1.09 | 89 | 1009.9 |
| 20260507224541 | 12 | 137 | 12.9 | 22.5 | 0.00 | 1.09 | 1.09 | 89 | 1009.5 |
| 20260507223040 | 12 | 125 | 12.9 | 22.5 | 0.00 | 1.09 | 1.09 | 89 | 1009.5 |
| 20260507221535 | 12 | 141 | 8.0 | 14.5 | 0.00 | 1.09 | 1.09 | 90 | 1009.4 |
| 20260507220043 | 12 | 86 | 6.4 | 16.1 | 0.00 | 1.09 | 1.09 | 90 | 1009.7 |
| 20260507214541 | 12 | 134 | 9.7 | 14.5 | 0.00 | 1.09 | 1.09 | 88 | 1009.5 |
| 20260507213041 | 12 | 103 | 4.8 | 16.1 | 0.00 | 1.09 | 1.09 | 89 | 1009.4 |
| 20260507211537 | 12 | 115 | 11.3 | 20.9 | 0.00 | 1.09 | 1.09 | 88 | 1009.5 |
| 20260507210036 | 12 | 154 | 9.7 | 22.5 | 0.00 | 1.09 | 1.09 | 90 | 1009.4 |
| 20260507204540 | 12 | 136 | 11.3 | 22.5 | 0.00 | 1.09 | 1.09 | 89 | 1009.2 |
| 20260507203041 | 12 | 108 | 12.9 | 27.4 | 0.00 | 1.09 | 1.09 | 90 | 1009.1 |
| 20260507201546 | 13 | 120 | 9.7 | 20.9 | 0.00 | 1.09 | 1.09 | 90 | 1008.8 |
| 20260507200039 | 13 | 132 | 12.9 | 24.1 | 0.00 | 1.09 | 1.09 | 91 | 1008.9 |
| 20260507194545 | 13 | 118 | 4.8 | 19.3 | 0.00 | 1.27 | 1.09 | 92 | 1008.9 |
| 20260507193044 | 13 | 130 | 9.7 | 24.1 | 0.00 | 1.27 | 1.09 | 91 | 1008.8 |
| 20260507191556 | 13 | 120 | 4.8 | 24.1 | 0.00 | 1.27 | 1.09 | 91 | 1009.0 |
| 20260507190042 | 13 | 144 | 9.7 | 20.9 | 0.00 | 1.27 | 1.09 | 91 | 1008.9 |
| 20260507184539 | 13 | 158 | 11.3 | 25.7 | 0.03 | 1.42 | 1.09 | 91 | 1008.2 |
| 20260507183042 | 13 | 107 | 8.0 | 20.9 | 0.08 | 1.42 | 1.09 | 91 | 1009.0 |
| 20260507181543 | 14 | 138 | 6.4 | 25.7 | 0.10 | 1.42 | 1.09 | 91 | 1008.3 |
| 20260507180034 | 15 | 84 | 14.5 | 24.1 | 0.10 | 1.42 | 1.09 | 90 | 1008.2 |
| 20260507174544 | 16 | 130 | 12.9 | 27.4 | 0.08 | 1.40 | 1.07 | 90 | 1008.9 |
| 20260507173051 | 18 | 74 | 12.9 | 24.1 | 0.03 | 1.32 | 1.02 | 87 | 1008.3 |
| 20260507171536 | 19 | 110 | 6.4 | 19.3 | 0.00 | 1.32 | 0.99 | 86 | 1007.7 |
| 20260507170045 | 21 | 0 | 0.0 | 6.4 | 0.03 | 1.32 | 0.99 | 88 | 1007.3 |
| 20260507164555 | 21 | 0 | 0.0 | 8.0 | 0.03 | 1.32 | 0.99 | 89 | 1007.6 |
| 20260507163042 | 20 | 46 | 0.0 | 9.7 | 0.05 | 1.32 | 0.99 | 90 | 1008.4 |
| 20260507161542 | 20 | 271 | 3.2 | 11.3 | 0.05 | 1.32 | 0.99 | 91 | 1008.8 |
| 20260507160047 | 20 | 320 | 3.2 | 9.7 | 0.03 | 1.30 | 0.97 | 90 | 1009.0 |
| 20260507154544 | 20 | 35 | 1.6 | 6.4 | 0.05 | 1.30 | 0.97 | 89 | 1008.8 |
| 20260507153042 | 20 | 0 | 0.0 | 6.4 | 0.05 | 1.27 | 0.94 | 90 | 1008.2 |
| 20260507151542 | 20 | 296 | 1.6 | 11.3 | 0.08 | 1.27 | 0.94 | 90 | 1008.6 |
| 20260507150039 | 20 | 346 | 1.6 | 11.3 | 0.10 | 1.27 | 0.94 | 90 | 1008.6 |
| 20260507144537 | 20 | 334 | 3.2 | 9.7 | 0.15 | 1.24 | 0.91 | 90 | 1008.9 |
| 20260507143057 | 20 | 331 | 1.6 | 11.3 | 0.23 | 1.22 | 0.89 | 92 | 1009.1 |
| 20260507141600 | 20 | 275 | 4.8 | 11.3 | 0.25 | 1.19 | 0.86 | 89 | 1008.9 |
| 20260507140039 | 20 | 298 | 3.2 | 6.4 | 0.25 | 1.17 | 0.84 | 93 | 1009.0 |
| 20260507134535 | 20 | 57 | 1.6 | 12.9 | 0.20 | 1.09 | 0.76 | 90 | 1009.4 |
| 20260507133043 | 20 | 292 | 1.6 | 12.9 | 0.10 | 0.99 | 0.66 | 92 | 1009.2 |
| 20260507131552 | 20 | 15 | 1.6 | 9.7 | 0.05 | 0.94 | 0.61 | 90 | 1009.3 |
| 20260507130045 | 20 | 288 | 1.6 | 11.3 | 0.03 | 0.91 | 0.58 | 89 | 1009.4 |
| 20260507124539 | 20 | 309 | 3.2 | 14.5 | 0.00 | 0.89 | 0.56 | 89 | 1009.5 |
| 20260507123050 | 20 | 319 | 4.8 | 12.9 | 0.03 | 0.89 | 0.56 | 91 | 1009.5 |
| 20260507121543 | 20 | 292 | 3.2 | 8.0 | 0.05 | 0.89 | 0.56 | 90 | 1009.3 |
| 20260507120041 | 20 | 330 | 6.4 | 17.7 | 0.05 | 0.89 | 0.56 | 90 | 1009.6 |
| 20260507114536 | 19 | 288 | 6.4 | 12.9 | 0.05 | 0.89 | 0.56 | 90 | 1009.7 |
| 20260507113045 | 20 | 323 | 4.8 | 12.9 | 0.03 | 0.86 | 0.53 | 93 | 1009.9 |
| 20260507111543 | 19 | 311 | 4.8 | 17.7 | 0.03 | 0.84 | 0.51 | 90 | 1009.9 |
| 20260507110046 | 20 | 352 | 3.2 | 17.7 | 0.03 | 0.84 | 0.51 | 91 | 1009.9 |
| 20260507104543 | 19 | 317 | 6.4 | 17.7 | 0.05 | 0.84 | 0.51 | 90 | 1009.3 |
| 20260507103039 | 19 | 337 | 4.8 | 14.5 | 0.05 | 0.84 | 0.51 | 91 | 1009.6 |
| 20260507101537 | 19 | 305 | 4.8 | 12.9 | 0.03 | 0.81 | 0.48 | 93 | 1009.3 |
| 20260507100054 | 18 | 324 | 3.2 | 14.5 | 0.05 | 0.81 | 0.48 | 92 | 1009.4 |
| 20260507094549 | 18 | 303 | 0.0 | 6.4 | 0.03 | 0.79 | 0.46 | 92 | 1009.4 |
| 20260507093040 | 18 | 0 | 3.2 | 11.3 | 0.03 | 0.79 | 0.46 | 92 | 1009.5 |
| 20260507091541 | 18 | 301 | 1.6 | 6.4 | 0.03 | 0.79 | 0.46 | 92 | 1009.5 |
| 20260507090044 | 18 | 296 | 0.0 | 4.8 | 0.03 | 0.76 | 0.43 | 92 | 1009.6 |
| 20260507084539 | 17 | 321 | 1.6 | 6.4 | 0.08 | 0.76 | 0.43 | 92 | 1009.8 |
| 20260507083043 | 17 | 0 | 1.6 | 8.0 | 0.13 | 0.76 | 0.43 | 92 | 1010.0 |
| 20260507081551 | 18 | 269 | 1.6 | 8.0 | 0.13 | 0.76 | 0.43 | 92 | 1010.3 |
| 20260507080038 | 18 | 230 | 0.0 | 3.2 | 0.10 | 0.74 | 0.41 | 92 | 1009.8 |
| 20260507074538 | 18 | 269 | 1.6 | 4.8 | 0.05 | 0.69 | 0.36 | 92 | 1009.8 |
| 20260507073044 | 18 | 0 | 1.6 | 6.4 | 0.00 | 0.64 | 0.30 | 92 | 1010.9 |
| 20260507071536 | 18 | 298 | 1.6 | 4.8 | 0.00 | 0.64 | 0.30 | 91 | 1010.6 |
| 20260507070044 | 18 | 0 | 1.6 | 6.4 | 0.00 | 0.64 | 0.30 | 92 | 1010.2 |
| 20260507064601 | 18 | 0 | 1.6 | 4.8 | 0.00 | 0.64 | 0.30 | 91 | 1010.8 |
| 20260507063041 | 18 | 297 | 4.8 | 11.3 | 0.00 | 0.64 | 0.30 | 91 | 1011.2 |
| 20260507061536 | 18 | 300 | 3.2 | 9.7 | 0.03 | 0.64 | 0.30 | 91 | 1011.0 |
| 20260507060106 | 18 | 0 | 0.0 | 0.0 | 0.10 | 0.64 | 0.30 | 91 | 1011.8 |
| 20260507054548 | 18 | 0 | 0.0 | 4.8 | 0.15 | 0.64 | 0.30 | 90 | 1011.7 |
| 20260507053041 | 18 | 317 | 1.6 | 11.3 | 0.20 | 0.64 | 0.30 | 90 | 1010.6 |
| 20260507051559 | 18 | 0 | 0.0 | 16.1 | 0.23 | 0.61 | 0.28 | 89 | 1010.7 |
| 20260507050048 | 18 | 288 | 6.4 | 16.1 | 0.20 | 0.53 | 0.20 | 88 | 1011.9 |